Time;durP1;ratioP1;P1;durP2;ratioP2;P2;SDS_P1;SDS_P2;PMS_P1;PMS_P2;Temp;Humidity;BMP_temperature;BMP_pressure;BME280_temperature;BME280_humidity;BME280_pressure;Samples;Min_cycle;Max_cycle;Signal;HPM_P1;HPM_P2
2023/11/14 00:01:37;;;;;;;4.73;4.17;;;;;;;8.38;92.74;94996.47;5030920;28;20923;-75
2023/11/14 00:04:04;;;;;;;4.70;4.00;;;;;;;8.37;92.63;94994.81;4996418;28;20469;-75
2023/11/14 00:06:30;;;;;;;7.60;5.20;;;;;;;8.40;92.07;94991.16;5030784;28;20449;-75
2023/11/14 00:08:59;;;;;;;6.90;4.67;;;;;;;8.37;91.71;94987.78;5031112;28;20449;-75
2023/11/14 00:11:33;;;;;;;8.73;4.87;;;;;;;8.33;92.34;94995.94;5030923;28;20793;-75
2023/11/14 00:14:00;;;;;;;5.00;4.50;;;;;;;8.33;92.41;94982.88;4997983;28;20540;-75
2023/11/14 00:16:27;;;;;;;5.77;5.10;;;;;;;8.34;92.92;94995.03;5030870;28;20445;-75
2023/11/14 00:18:55;;;;;;;5.73;4.70;;;;;;;8.36;92.38;94993.13;5030997;28;20450;-75
2023/11/14 00:21:22;;;;;;;6.57;4.60;;;;;;;8.39;92.37;94990.31;5030848;28;20921;-75
2023/11/14 00:23:50;;;;;;;5.57;4.63;;;;;;;8.40;91.76;94994.59;5030762;28;20839;-75
2023/11/14 00:26:17;;;;;;;5.70;4.50;;;;;;;8.38;91.41;94993.84;5012081;28;20438;-75
2023/11/14 00:28:45;;;;;;;4.83;4.23;;;;;;;8.35;91.46;94994.91;5030687;28;20483;-75
2023/11/14 00:31:12;;;;;;;8.53;4.07;;;;;;;8.36;91.34;95016.66;5030622;28;20478;-75
2023/11/14 00:33:39;;;;;;;6.80;4.80;;;;;;;8.30;91.48;95009.25;5030990;28;20444;-75
2023/11/14 00:36:06;;;;;;;5.13;4.37;;;;;;;8.30;91.85;95017.09;5030588;28;20445;-75
2023/11/14 00:38:33;;;;;;;7.07;4.73;;;;;;;8.30;91.31;95014.47;5030516;28;20982;-75
2023/11/14 00:41:00;;;;;;;6.57;4.70;;;;;;;8.25;91.10;95014.00;5030438;28;20915;-75
2023/11/14 00:43:27;;;;;;;10.37;4.70;;;;;;;8.10;91.47;95007.28;5030327;28;20481;-75
2023/11/14 00:45:55;;;;;;;6.27;4.60;;;;;;;8.11;91.53;95006.34;5029998;28;20453;-75
2023/11/14 00:48:21;;;;;;;6.80;5.33;;;;;;;7.92;91.66;94999.84;5030388;28;20487;-75
2023/11/14 00:50:48;;;;;;;6.57;5.10;;;;;;;8.01;91.49;95004.38;5030593;28;20452;-75
2023/11/14 00:53:15;;;;;;;9.40;4.77;;;;;;;7.90;91.65;94998.28;5030088;28;20509;-75
2023/11/14 00:55:42;;;;;;;6.30;5.30;;;;;;;7.85;92.13;95003.00;5030645;28;20468;-75
2023/11/14 00:58:09;;;;;;;6.50;4.30;;;;;;;7.86;92.39;95005.50;5030469;28;20452;-75
2023/11/14 01:00:35;;;;;;;6.00;4.67;;;;;;;7.81;92.54;95012.84;5030369;28;20445;-75
2023/11/14 01:03:04;;;;;;;4.83;4.20;;;;;;;7.88;92.70;95016.69;5030253;28;20449;-75
2023/11/14 01:05:31;;;;;;;5.53;4.37;;;;;;;7.85;92.53;95009.06;5030064;28;20865;-75
2023/11/14 01:07:57;;;;;;;4.70;3.90;;;;;;;7.85;92.57;95011.69;4995358;28;20980;-75
2023/11/14 01:10:24;;;;;;;7.00;3.70;;;;;;;7.77;92.60;94996.53;5011554;28;20921;-75
2023/11/14 01:12:51;;;;;;;10.23;4.63;;;;;;;7.78;92.80;95013.03;5030111;28;20442;-75
2023/11/14 01:15:18;;;;;;;4.83;3.83;;;;;;;7.77;92.45;94998.31;5030183;28;20436;-75
2023/11/14 01:17:45;;;;;;;5.37;4.47;;;;;;;7.74;92.34;95009.00;5030051;28;20538;-75
2023/11/14 01:20:14;;;;;;;13.00;5.10;;;;;;;7.44;93.03;95017.22;5029954;28;20444;-75
2023/11/14 01:22:40;;;;;;;9.17;5.80;;;;;;;7.34;93.90;95014.44;5029957;28;20443;-75
2023/11/14 01:25:08;;;;;;;7.03;5.70;;;;;;;7.43;93.85;95002.50;5029489;28;20456;-75
2023/11/14 01:27:36;;;;;;;6.07;5.43;;;;;;;7.46;94.06;94990.06;5029630;28;20549;-75
2023/11/14 01:30:03;;;;;;;6.63;5.13;;;;;;;7.49;93.88;94991.63;5029837;28;20453;-75
2023/11/14 01:32:30;;;;;;;6.70;5.10;;;;;;;7.47;94.19;94981.28;5029500;28;20445;-75
2023/11/14 01:34:56;;;;;;;6.90;5.10;;;;;;;7.51;94.24;94965.41;5029055;28;20448;-75
2023/11/14 01:37:25;;;;;;;5.03;4.50;;;;;;;7.55;94.16;94956.44;5029442;28;20451;-75
2023/11/14 01:39:51;;;;;;;4.83;4.40;;;;;;;7.61;94.08;94953.38;5029615;28;20445;-75
2023/11/14 01:42:18;;;;;;;4.77;3.77;;;;;;;7.64;94.16;94955.75;5029667;28;20445;-75
2023/11/14 01:44:45;;;;;;;4.93;3.90;;;;;;;7.65;94.00;94960.88;5029846;28;20449;-75
2023/11/14 01:47:12;;;;;;;5.60;3.90;;;;;;;7.66;93.57;94957.31;5029373;28;20496;-75
2023/11/14 01:49:39;;;;;;;4.93;4.33;;;;;;;7.65;93.94;94962.66;5029683;28;20448;-75
2023/11/14 01:52:06;;;;;;;11.50;4.50;;;;;;;7.68;93.51;94952.81;5028943;28;20456;-75
2023/11/14 01:54:35;;;;;;;5.97;3.47;;;;;;;7.64;93.43;94960.97;5028994;28;20472;-75
2023/11/14 01:57:02;;;;;;;4.87;4.00;;;;;;;7.67;93.63;94961.59;5030479;28;20439;-75
2023/11/14 01:59:29;;;;;;;4.47;4.07;;;;;;;7.66;93.70;94954.69;5033143;28;20459;-75
2023/11/14 02:01:57;;;;;;;5.40;3.50;;;;;;;7.65;93.94;94950.44;5032956;28;20444;-75
2023/11/14 02:04:26;;;;;;;5.93;4.73;;;;;;;7.68;93.05;94952.81;5032869;28;21009;-75
2023/11/14 02:06:53;;;;;;;4.17;3.83;;;;;;;7.69;93.82;94956.25;5033050;28;20534;-75
2023/11/14 02:09:20;;;;;;;5.30;4.80;;;;;;;7.69;93.64;94958.88;5032883;28;20442;-75
2023/11/14 02:11:50;;;;;;;4.30;4.00;;;;;;;7.71;93.64;94959.59;5032892;28;20447;-75
2023/11/14 02:14:17;;;;;;;5.43;3.93;;;;;;;7.68;93.29;94954.59;5032724;28;20489;-75
2023/11/14 02:16:48;;;;;;;8.17;5.23;;;;;;;7.47;93.47;94960.41;4998102;28;20440;-75
2023/11/14 02:19:15;;;;;;;7.83;5.57;;;;;;;7.52;92.74;94967.94;5032696;28;20451;-75
2023/11/14 02:21:42;;;;;;;8.17;5.87;;;;;;;7.38;92.82;94955.84;5032837;28;20453;-75
2023/11/14 02:24:15;;;;;;;6.17;5.53;;;;;;;7.32;92.66;94958.91;5032749;28;20817;-75
2023/11/14 02:26:45;;;;;;;9.60;6.67;;;;;;;7.17;93.11;94952.13;5014018;28;20443;-75
2023/11/14 02:29:14;;;;;;;9.97;6.50;;;;;;;7.21;92.93;94950.16;5032281;28;20515;-75
2023/11/14 02:31:41;;;;;;;11.00;8.07;;;;;;;7.07;93.21;94945.91;5032852;28;20500;-75
2023/11/14 02:34:09;;;;;;;10.57;7.90;;;;;;;7.06;93.92;94954.69;5032384;28;20438;-75
2023/11/14 02:36:37;;;;;;;11.13;8.03;;;;;;;7.06;93.73;94962.50;5032594;28;20442;-75
2023/11/14 02:39:04;;;;;;;9.80;8.53;;;;;;;7.07;93.97;94959.78;5032395;28;20815;-75
2023/11/14 02:41:31;;;;;;;10.63;7.70;;;;;;;7.11;94.26;94963.00;5032400;28;20459;-75
2023/11/14 02:43:59;;;;;;;8.57;7.40;;;;;;;7.11;93.72;94961.25;5032412;28;20933;-75
2023/11/14 02:46:26;;;;;;;9.30;7.00;;;;;;;7.12;93.55;94964.69;5032361;28;20521;-75
2023/11/14 02:48:53;;;;;;;11.50;7.33;;;;;;;7.12;93.15;94970.72;5013768;28;20494;-75
2023/11/14 02:51:20;;;;;;;7.00;6.33;;;;;;;7.15;93.48;94982.72;5013633;28;21202;-75
2023/11/14 02:53:49;;;;;;;9.73;6.43;;;;;;;7.18;93.70;94985.13;5013570;28;20460;-75
2023/11/14 02:56:17;;;;;;;8.60;5.63;;;;;;;7.19;93.71;94996.38;5013319;28;21122;-75
2023/11/14 02:58:44;;;;;;;7.57;5.60;;;;;;;7.18;93.02;94995.56;5013941;28;20867;-75
2023/11/14 03:01:13;;;;;;;13.40;6.20;;;;;;;7.15;93.17;95001.00;5031987;28;20448;-75
2023/11/14 03:03:44;;;;;;;6.53;5.90;;;;;;;7.15;93.46;94980.13;4997857;28;20461;-75
2023/11/14 03:06:11;;;;;;;7.70;5.27;;;;;;;7.16;93.12;94984.41;5031873;28;20562;-75
2023/11/14 03:08:37;;;;;;;7.73;6.83;;;;;;;7.20;93.37;94992.84;4996725;28;20992;-75
2023/11/14 03:11:04;;;;;;;6.27;4.60;;;;;;;7.19;92.41;94991.19;5013490;28;20838;-75
2023/11/14 03:13:31;;;;;;;6.87;5.67;;;;;;;7.20;92.74;94995.44;5032112;28;20442;-75
2023/11/14 03:15:58;;;;;;;6.93;5.33;;;;;;;7.18;92.72;94985.13;5031952;28;20449;-75
2023/11/14 03:18:26;;;;;;;7.53;5.67;;;;;;;7.14;93.17;94983.66;5031740;28;20458;-75
2023/11/14 03:20:53;;;;;;;7.37;5.53;;;;;;;7.11;93.07;94986.50;5031761;28;20439;-75
2023/11/14 03:23:20;;;;;;;10.80;5.07;;;;;;;7.02;93.07;94995.81;5031819;28;20444;-75
2023/11/14 03:25:47;;;;;;;12.03;5.63;;;;;;;7.02;92.87;94993.19;5031761;28;20480;-75
2023/11/14 03:28:14;;;;;;;7.40;5.00;;;;;;;7.07;93.12;94998.94;5031581;28;20497;-75
2023/11/14 03:30:40;;;;;;;6.80;5.00;;;;;;;7.05;93.17;95000.81;5031646;28;20440;-75
2023/11/14 03:33:07;;;;;;;6.57;5.37;;;;;;;7.06;93.15;94996.44;5031790;28;20454;-75
2023/11/14 03:35:36;;;;;;;5.17;4.67;;;;;;;7.11;93.38;95005.59;5031695;28;20445;-75
2023/11/14 03:38:03;;;;;;;6.60;4.93;;;;;;;7.10;93.07;95014.38;5031191;28;20490;-75
2023/11/14 03:40:30;;;;;;;9.30;5.93;;;;;;;7.13;92.62;95008.09;5012902;28;20440;-75
2023/11/14 03:42:57;;;;;;;7.10;3.93;;;;;;;7.17;92.85;95013.94;5031391;28;20479;-75
2023/11/14 03:45:24;;;;;;;9.97;6.60;;;;;;;7.13;93.28;95006.31;5031175;28;20443;-75
2023/11/14 03:47:51;;;;;;;6.70;4.93;;;;;;;7.05;92.94;95006.03;5031488;28;20494;-75
2023/11/14 03:50:17;;;;;;;16.43;5.33;;;;;;;7.06;92.80;95006.88;5031197;28;20435;-76
2023/11/14 03:52:46;;;;;;;10.63;6.40;;;;;;;7.07;93.45;95001.53;5031322;28;20454;-75
2023/11/14 03:55:13;;;;;;;7.60;5.00;;;;;;;7.04;93.22;94993.94;5031262;28;20482;-75
2023/11/14 03:57:39;;;;;;;6.10;4.40;;;;;;;7.09;93.67;94991.81;5031453;28;20443;-75
2023/11/14 04:00:09;;;;;;;7.30;5.20;;;;;;;7.12;93.25;94988.16;5031290;28;20881;-75
2023/11/14 04:02:36;;;;;;;6.37;5.80;;;;;;;7.08;92.92;94995.38;5012952;28;20444;-75
2023/11/14 04:05:04;;;;;;;5.70;5.07;;;;;;;7.08;93.13;95000.59;5012545;28;20435;-75
2023/11/14 04:07:31;;;;;;;5.83;5.17;;;;;;;7.07;92.58;94998.94;5031392;28;20511;-75
2023/11/14 04:09:59;;;;;;;7.20;5.20;;;;;;;7.07;92.64;94998.94;5030976;28;20492;-75
2023/11/14 04:12:26;;;;;;;8.90;5.20;;;;;;;7.08;92.53;94991.94;5031544;28;20455;-75
2023/11/14 04:14:53;;;;;;;7.90;5.20;;;;;;;7.08;92.87;94992.78;5031621;28;20452;-75
2023/11/14 04:17:20;;;;;;;11.50;6.27;;;;;;;7.09;93.18;94991.00;5030881;28;20448;-75
2023/11/14 04:19:47;;;;;;;7.73;5.30;;;;;;;7.07;92.54;94988.50;5029729;28;20485;-75
2023/11/14 04:22:14;;;;;;;8.03;6.10;;;;;;;7.00;92.88;94994.25;5031139;28;20784;-75
2023/11/14 04:24:41;;;;;;;9.60;6.33;;;;;;;7.00;93.63;94994.25;5031012;28;20449;-75
2023/11/14 04:27:09;;;;;;;5.90;5.30;;;;;;;6.97;93.77;94995.28;5030549;28;20446;-75
2023/11/14 04:29:36;;;;;;;8.00;5.57;;;;;;;6.92;94.90;94993.91;5030806;28;20543;-75
2023/11/14 04:32:04;;;;;;;10.33;5.47;;;;;;;6.93;94.46;94986.00;5030518;28;20453;-75
2023/11/14 04:34:31;;;;;;;10.37;5.17;;;;;;;6.92;95.05;94991.31;5030843;28;20443;-75
2023/11/14 04:36:57;;;;;;;8.43;6.20;;;;;;;6.92;95.21;94980.88;5030578;28;20943;-75
2023/11/14 04:39:24;;;;;;;7.00;6.30;;;;;;;6.95;95.19;94975.47;5030859;28;20461;-75
2023/11/14 04:41:51;;;;;;;7.73;6.33;;;;;;;6.98;95.06;94980.47;5030648;28;20437;-75
2023/11/14 04:44:19;;;;;;;8.13;6.60;;;;;;;6.97;95.39;94971.81;5030277;28;20470;-75
2023/11/14 04:46:46;;;;;;;16.00;6.03;;;;;;;6.96;95.64;94969.31;5030459;28;20444;-75
2023/11/14 04:49:13;;;;;;;8.10;5.33;;;;;;;6.94;95.82;94968.56;5030402;28;20490;-75
2023/11/14 04:51:40;;;;;;;9.83;6.57;;;;;;;6.93;95.98;94975.56;5030116;28;20448;-75
2023/11/14 04:54:07;;;;;;;17.87;6.33;;;;;;;6.94;95.70;94976.38;5030112;28;20465;-75
2023/11/14 04:56:35;;;;;;;16.37;7.73;;;;;;;6.96;96.41;94980.59;5029986;28;20451;-75
2023/11/14 04:59:01;;;;;;;9.50;6.20;;;;;;;6.99;96.03;94984.75;5029636;28;20535;-75
2023/11/14 05:01:30;;;;;;;14.00;7.27;;;;;;;6.95;96.49;94984.13;5030161;28;20439;-75
2023/11/14 05:03:56;;;;;;;15.47;6.30;;;;;;;7.02;96.46;95000.19;5030300;28;20452;-75
2023/11/14 05:06:23;;;;;;;9.30;6.47;;;;;;;7.08;96.17;95008.41;5030319;28;20439;-75
2023/11/14 05:08:50;;;;;;;15.50;7.87;;;;;;;7.04;95.97;95006.13;5030172;28;20492;-76
2023/11/14 05:11:17;;;;;;;13.60;7.57;;;;;;;6.96;95.66;95014.50;5029746;28;20450;-75
2023/11/14 05:13:44;;;;;;;8.40;6.97;;;;;;;6.87;96.46;95016.88;5029924;28;20978;-75
2023/11/14 05:16:11;;;;;;;12.90;8.20;;;;;;;6.80;95.99;95022.53;5029831;28;20861;-75
2023/11/14 05:18:39;;;;;;;11.50;8.37;;;;;;;6.35;95.16;95020.38;5029668;28;20446;-75
2023/11/14 05:21:06;;;;;;;15.23;8.20;;;;;;;6.37;95.14;95031.56;5029133;28;20440;-75
2023/11/14 05:23:33;;;;;;;11.83;7.70;;;;;;;5.99;96.81;95024.47;5029654;28;20442;-76
2023/11/14 05:26:00;;;;;;;11.77;9.33;;;;;;;5.68;98.23;95032.53;5029655;28;20446;-75
2023/11/14 05:28:27;;;;;;;15.53;11.40;;;;;;;5.59;98.24;95032.19;5029341;28;20821;-75
2023/11/14 05:30:53;;;;;;;17.27;10.77;;;;;;;5.42;98.07;95034.16;5029110;28;20450;-75
2023/11/14 05:33:20;;;;;;;16.27;11.20;;;;;;;5.51;97.30;95018.00;5029535;28;20443;-75
2023/11/14 05:35:48;;;;;;;12.87;10.47;;;;;;;5.58;98.28;95038.31;5029420;28;20453;-75
2023/11/14 05:38:15;;;;;;;13.50;9.80;;;;;;;5.68;97.71;95037.75;5029364;28;20453;-75
2023/11/14 05:40:42;;;;;;;16.57;11.60;;;;;;;5.85;98.63;95046.16;5029128;28;20447;-75
2023/11/14 05:43:09;;;;;;;16.80;11.23;;;;;;;6.48;98.82;95042.94;5029484;28;20455;-74
2023/11/14 05:45:35;;;;;;;15.80;12.40;;;;;;;7.39;94.40;95041.06;5029499;28;20446;-75
2023/11/14 05:48:04;;;;;;;14.17;10.33;;;;;;;8.28;89.95;95032.91;5029546;28;20443;-75
2023/11/14 05:50:31;;;;;;;14.00;11.10;;;;;;;9.10;83.37;95033.72;5029106;28;20444;-76
2023/11/14 05:53:02;;;;;;;15.30;11.80;;;;;;;9.68;80.95;95033.59;5028817;28;20445;-76
2023/11/14 05:55:28;;;;;;;19.30;12.47;;;;;;;9.99;78.55;95035.47;5027387;28;20501;-76
2023/11/14 05:57:55;;;;;;;16.30;11.00;;;;;;;10.04;78.30;95040.31;5028325;28;20489;-76
2023/11/14 06:00:24;;;;;;;16.47;10.70;;;;;;;10.02;77.33;95039.63;5029385;28;20445;-77
2023/11/14 06:02:51;;;;;;;17.70;12.80;;;;;;;9.78;77.53;95040.59;5029103;28;20451;-76
2023/11/14 06:05:19;;;;;;;24.23;12.10;;;;;;;9.68;79.10;95039.69;5029211;28;20909;-76
2023/11/14 06:07:46;;;;;;;17.57;10.53;;;;;;;9.43;80.20;95035.53;5029591;28;20442;-79
2023/11/14 06:10:14;;;;;;;14.53;11.50;;;;;;;9.35;84.56;95037.09;5010815;28;20478;-74
2023/11/14 06:12:41;;;;;;;19.60;10.67;;;;;;;9.18;83.32;95047.06;5029240;28;20544;-76
2023/11/14 06:15:09;;;;;;;23.67;12.47;;;;;;;9.11;83.52;95042.41;5028865;28;20530;-75
2023/11/14 06:17:35;;;;;;;16.63;11.20;;;;;;;9.06;83.23;95018.38;5031351;28;20480;-74
2023/11/14 06:20:05;;;;;;;15.70;9.90;;;;;;;9.08;83.48;95019.94;5028796;28;20446;-76
2023/11/14 06:22:31;;;;;;;13.77;10.37;;;;;;;9.07;84.05;95013.03;5033851;28;20926;-75
2023/11/14 06:24:58;;;;;;;27.40;20.40;;;;;;;8.97;84.29;95010.28;5028627;28;20445;-74
2023/11/14 06:27:27;;;;;;;26.13;13.20;;;;;;;8.99;85.08;95012.78;5012182;28;20471;-75
2023/11/14 06:29:55;;;;;;;44.53;28.07;;;;;;;9.10;84.59;95006.72;5036005;28;21005;-75
2023/11/14 06:32:22;;;;;;;33.83;23.07;;;;;;;9.17;84.45;95015.75;5028435;28;20450;-76
2023/11/14 06:34:49;;;;;;;33.53;20.27;;;;;;;9.22;84.41;95009.22;5028590;28;20465;-75
2023/11/14 06:37:16;;;;;;;35.10;18.90;;;;;;;9.27;85.03;95021.97;5026214;28;20445;-75
2023/11/14 06:39:43;;;;;;;26.20;14.50;;;;;;;9.40;84.58;95016.59;5028579;28;20449;-75
2023/11/14 06:42:10;;;;;;;18.07;13.87;;;;;;;9.38;84.46;95021.13;5028603;28;20460;-75
2023/11/14 06:44:38;;;;;;;15.27;10.43;;;;;;;9.40;85.43;95014.00;5069520;28;20442;-75
2023/11/14 06:47:05;;;;;;;14.97;10.60;;;;;;;9.56;86.41;95014.47;5031755;28;20481;-75
2023/11/14 06:49:39;;;;;;;18.10;9.70;;;;;;;9.72;87.11;95014.06;5031512;28;20825;-74
2023/11/14 06:52:07;;;;;;;89.23;39.43;;;;;;;9.82;86.08;95004.50;5013831;28;20987;-75
2023/11/14 06:54:33;;;;;;;67.20;30.40;;;;;;;9.81;87.08;95008.91;5098469;28;20481;-75
2023/11/14 06:57:00;;;;;;;20.80;13.50;;;;;;;9.91;86.61;95003.78;5031218;28;20451;-75
2023/11/14 06:59:29;;;;;;;21.83;10.23;;;;;;;9.88;86.67;94991.78;5031755;28;20430;-75
2023/11/14 07:01:58;;;;;;;16.30;12.13;;;;;;;9.83;87.38;94988.69;5030398;28;20505;-75
2023/11/14 07:04:25;;;;;;;24.57;13.03;;;;;;;9.76;87.67;94990.09;5031354;28;20944;-75
2023/11/14 07:06:52;;;;;;;14.93;10.47;;;;;;;9.33;88.43;94979.59;5031753;28;20465;-75
2023/11/14 07:09:21;;;;;;;15.60;9.20;;;;;;;9.24;90.04;94988.97;5031193;28;20972;-75
2023/11/14 07:11:48;;;;;;;13.70;10.10;;;;;;;9.15;91.22;94994.94;5031299;28;20459;-75
2023/11/14 07:14:19;;;;;;;14.17;10.70;;;;;;;9.02;90.78;95009.94;5036938;28;20438;-75
2023/11/14 07:16:45;;;;;;;12.00;10.63;;;;;;;9.08;91.22;95017.31;5022400;28;20499;-75
2023/11/14 07:19:14;;;;;;;24.90;11.70;;;;;;;9.14;91.80;95019.44;5031031;28;20453;-75
2023/11/14 07:21:41;;;;;;;19.23;11.73;;;;;;;9.20;91.16;95015.53;5031788;28;20803;-75
2023/11/14 07:24:08;;;;;;;25.63;13.50;;;;;;;9.17;91.45;95019.22;5031507;28;20451;-75
2023/11/14 07:26:35;;;;;;;18.47;11.97;;;;;;;9.20;92.12;95013.75;5031803;28;20446;-75
2023/11/14 07:29:04;;;;;;;16.60;13.50;;;;;;;9.32;92.24;95002.34;5030987;28;20482;-74
2023/11/14 07:31:30;;;;;;;20.37;11.40;;;;;;;9.36;91.91;95002.91;5031321;28;20450;-75
2023/11/14 07:33:58;;;;;;;14.80;10.50;;;;;;;9.42;90.64;95004.22;5031131;28;20453;-75
2023/11/14 07:36:26;;;;;;;13.47;9.93;;;;;;;9.53;90.14;95005.03;5031402;28;20453;-75
2023/11/14 07:38:53;;;;;;;13.57;9.27;;;;;;;9.55;89.97;94999.69;5031037;28;20925;-75
2023/11/14 07:41:20;;;;;;;28.03;13.97;;;;;;;9.54;91.08;94993.63;5031315;28;20430;-75
2023/11/14 07:43:47;;;;;;;19.90;11.80;;;;;;;9.64;90.30;94998.97;5031156;28;20454;-75
2023/11/14 07:46:14;;;;;;;19.93;12.30;;;;;;;9.86;89.92;95001.53;5031116;28;20435;-75
2023/11/14 07:48:42;;;;;;;13.83;11.03;;;;;;;10.02;90.19;95002.91;5031195;28;20450;-76
2023/11/14 07:51:09;;;;;;;17.33;10.10;;;;;;;10.15;89.23;94990.50;5031052;28;20482;-75
2023/11/14 07:53:37;;;;;;;13.60;10.07;;;;;;;10.16;88.84;94997.41;5030892;28;20446;-75
2023/11/14 07:56:04;;;;;;;20.53;11.30;;;;;;;10.29;89.34;95002.50;5030811;28;20801;-75
2023/11/14 07:58:31;;;;;;;14.90;10.33;;;;;;;10.38;88.65;95001.72;5031189;28;20450;-75
2023/11/14 08:00:58;;;;;;;19.33;10.73;;;;;;;10.43;87.62;94996.97;5031008;28;20450;-75
2023/11/14 08:03:24;;;;;;;15.40;10.50;;;;;;;10.46;87.44;95004.56;5031191;28;20446;-75
2023/11/14 08:05:51;;;;;;;21.73;11.60;;;;;;;10.52;88.70;95004.91;5030993;28;20478;-75
2023/11/14 08:08:17;;;;;;;18.90;11.63;;;;;;;10.68;89.01;95008.84;5030624;28;20453;-75
2023/11/14 08:10:46;;;;;;;20.67;13.73;;;;;;;10.72;88.09;95007.66;4995885;28;21008;-75
2023/11/14 08:13:12;;;;;;;18.40;12.10;;;;;;;10.73;88.51;94990.97;5031098;28;20446;-75
2023/11/14 08:15:39;;;;;;;21.73;13.00;;;;;;;10.75;88.40;94989.03;5031335;28;20502;-76
2023/11/14 08:18:06;;;;;;;14.93;11.03;;;;;;;10.82;89.24;94996.25;5031391;28;20439;-75
2023/11/14 08:20:33;;;;;;;14.40;10.83;;;;;;;10.93;87.93;94991.88;5031154;28;20443;-75
2023/11/14 08:23:00;;;;;;;26.70;10.43;;;;;;;10.95;86.38;94976.84;5030920;28;20454;-75
2023/11/14 08:25:27;;;;;;;22.73;11.93;;;;;;;10.91;86.35;94978.06;5030803;28;20445;-75
2023/11/14 08:27:55;;;;;;;17.33;10.20;;;;;;;10.95;87.84;94977.66;5031219;28;20447;-75
2023/11/14 08:30:22;;;;;;;13.67;10.43;;;;;;;10.93;87.49;94963.84;5030539;28;20481;-75
2023/11/14 08:32:48;;;;;;;11.60;8.93;;;;;;;10.86;85.96;94960.91;5030794;28;20450;-75
2023/11/14 08:35:15;;;;;;;14.20;8.80;;;;;;;11.06;88.10;94961.03;5030664;28;20450;-75
2023/11/14 08:37:42;;;;;;;11.47;7.03;;;;;;;11.17;87.01;94948.63;4995742;28;20439;-75
2023/11/14 08:40:12;;;;;;;14.87;7.57;;;;;;;11.11;85.41;94950.94;5030555;28;20537;-75
2023/11/14 08:42:38;;;;;;;9.70;6.43;;;;;;;11.26;84.13;94957.47;5030791;28;21001;-75
2023/11/14 08:45:08;;;;;;;8.13;6.77;;;;;;;11.44;83.84;94955.06;4995560;28;20480;-75
2023/11/14 08:47:35;;;;;;;11.73;6.10;;;;;;;11.53;82.51;94956.88;5030757;28;20442;-75
2023/11/14 08:50:02;;;;;;;10.53;6.87;;;;;;;11.60;82.57;94955.41;5030333;28;20486;-75
2023/11/14 08:52:29;;;;;;;8.87;6.63;;;;;;;11.75;83.52;94967.19;5029760;28;20435;-75
2023/11/14 08:54:57;;;;;;;10.10;7.30;;;;;;;11.74;82.03;94955.00;5030227;28;20486;-75
2023/11/14 08:57:24;;;;;;;8.87;6.37;;;;;;;11.85;80.74;94971.66;5030605;28;20443;-75
2023/11/14 08:59:50;;;;;;;12.70;5.60;;;;;;;11.95;78.66;94975.97;5030330;28;20460;-75
2023/11/14 09:02:20;;;;;;;13.90;7.07;;;;;;;11.94;79.36;94978.75;5030003;28;20938;-75
2023/11/14 09:04:46;;;;;;;9.80;6.60;;;;;;;12.07;79.06;94969.63;5029041;28;20446;-75
2023/11/14 09:07:13;;;;;;;9.77;6.87;;;;;;;12.16;78.75;94982.94;5026392;28;20798;-74
2023/11/14 09:09:43;;;;;;;13.97;8.63;;;;;;;12.35;79.09;94978.50;5030164;28;20570;-72
2023/11/14 09:12:10;;;;;;;18.10;8.47;;;;;;;12.48;77.99;94982.66;5030313;28;20452;-75
2023/11/14 09:14:37;;;;;;;17.93;6.93;;;;;;;12.64;78.19;94977.63;5034851;28;20788;-75
2023/11/14 09:17:04;;;;;;;12.83;6.60;;;;;;;12.80;75.70;94970.00;5041574;28;20447;-75
2023/11/14 09:19:32;;;;;;;11.17;7.03;;;;;;;12.96;74.28;94972.88;5030594;28;21007;-75
2023/11/14 09:22:00;;;;;;;12.10;7.60;;;;;;;13.07;74.11;94974.53;5029435;28;20451;-75
2023/11/14 09:24:26;;;;;;;16.10;7.20;;;;;;;12.99;73.32;94967.31;5016480;28;20444;-75
2023/11/14 09:26:53;;;;;;;11.60;6.47;;;;;;;13.02;73.17;94966.22;5028807;28;20442;-74
2023/11/14 09:29:20;;;;;;;7.17;6.03;;;;;;;12.96;72.88;94967.59;5021900;28;20450;-76
2023/11/14 09:31:48;;;;;;;9.47;5.83;;;;;;;13.05;73.83;94965.09;5027938;28;20445;-77
2023/11/14 09:34:15;;;;;;;13.23;7.87;;;;;;;13.25;74.34;94970.19;5028640;28;20445;-76
2023/11/14 09:36:43;;;;;;;19.33;8.50;;;;;;;13.30;73.14;94972.41;5029057;28;20454;-77
2023/11/14 09:39:12;;;;;;;10.83;7.53;;;;;;;13.30;73.11;94967.97;5029219;28;20531;-77
2023/11/14 09:41:39;;;;;;;15.07;7.80;;;;;;;13.30;73.09;94964.50;5032154;28;20460;-77
2023/11/14 09:44:06;;;;;;;15.10;6.97;;;;;;;13.19;73.41;94957.59;5009471;28;20436;-77
2023/11/14 09:46:34;;;;;;;11.60;5.27;;;;;;;13.14;72.02;94964.22;5019716;28;20458;-77
2023/11/14 09:49:04;;;;;;;9.07;5.90;;;;;;;13.36;72.40;94955.19;5046441;28;20445;-77
2023/11/14 09:51:32;;;;;;;11.37;6.20;;;;;;;13.38;71.41;94950.59;5039342;28;20987;-77
2023/11/14 09:54:02;;;;;;;6.13;5.43;;;;;;;13.38;72.12;94940.88;5028540;28;20505;-76
2023/11/14 09:56:29;;;;;;;13.20;6.60;;;;;;;13.50;71.53;94944.13;5028960;28;20473;-76
2023/11/14 09:58:59;;;;;;;15.57;6.20;;;;;;;13.58;71.83;94941.59;5029143;28;20441;-76
2023/11/14 10:01:25;;;;;;;11.80;6.50;;;;;;;13.67;71.33;94935.44;5029031;28;20456;-76
2023/11/14 10:03:52;;;;;;;8.83;4.30;;;;;;;13.56;69.29;94933.81;5029120;28;20473;-77
2023/11/14 10:06:19;;;;;;;15.70;4.17;;;;;;;13.75;71.32;94924.16;5029234;28;20448;-77
2023/11/14 10:08:47;;;;;;;6.73;4.13;;;;;;;13.42;67.92;94922.97;5029823;28;20441;-77
2023/11/14 10:11:15;;;;;;;6.37;5.03;;;;;;;13.30;69.03;94912.63;5029400;28;20492;-77
2023/11/14 10:13:42;;;;;;;5.60;3.70;;;;;;;13.45;69.97;94905.03;5028840;28;20454;-77
2023/11/14 10:16:18;;;;;;;11.37;5.27;;;;;;;13.61;70.40;94907.03;5029295;28;20449;-77
2023/11/14 10:18:45;;;;;;;8.47;4.90;;;;;;;13.79;71.15;94904.41;5011799;28;20521;-77
2023/11/14 10:21:27;;;;;;;6.37;4.70;;;;;;;13.87;69.97;94904.50;4997459;28;20438;-77
2023/11/14 10:23:55;;;;;;;7.20;4.50;;;;;;;13.92;70.34;94895.16;5032309;28;20527;-77
2023/11/14 10:26:24;;;;;;;5.30;4.00;;;;;;;13.97;69.27;94901.81;5033048;28;20506;-76
2023/11/14 10:28:55;;;;;;;11.50;4.23;;;;;;;14.04;69.97;94890.50;5032710;28;20445;-77
2023/11/14 10:31:36;;;;;;;6.10;5.10;;;;;;;13.90;70.08;94877.84;5032798;28;20577;-77
2023/11/14 10:34:03;;;;;;;6.03;4.20;;;;;;;13.97;70.45;94868.34;5032378;28;20489;-75
2023/11/14 10:36:30;;;;;;;5.93;4.90;;;;;;;13.99;69.94;94855.81;5032690;28;20453;-77
2023/11/14 10:39:05;;;;;;;8.17;4.50;;;;;;;14.00;69.95;94846.09;5032330;28;20445;-75
2023/11/14 10:41:33;;;;;;;6.53;4.40;;;;;;;14.07;69.91;94847.13;5032364;28;20452;-75
2023/11/14 10:44:10;;;;;;;6.00;3.93;;;;;;;14.16;69.27;94839.13;5013747;28;20447;-78
2023/11/14 10:46:37;;;;;;;8.03;4.20;;;;;;;14.19;69.25;94833.56;5032205;28;20442;-78
2023/11/14 10:49:08;;;;;;;6.57;4.27;;;;;;;14.34;69.45;94831.19;5032246;28;20445;-78
2023/11/14 10:51:37;;;;;;;7.80;3.97;;;;;;;14.40;67.83;94821.81;5032325;28;21037;-78
2023/11/14 10:54:06;;;;;;;4.63;3.43;;;;;;;14.31;67.92;94806.91;5032415;28;20480;-78
2023/11/14 10:56:36;;;;;;;6.40;3.83;;;;;;;14.42;68.40;94809.28;5031894;28;20454;-78
2023/11/14 10:59:04;;;;;;;9.60;4.00;;;;;;;14.45;67.85;94798.44;5032306;28;20838;-75
2023/11/14 11:01:34;;;;;;;7.27;3.80;;;;;;;14.46;67.29;94795.66;5032246;28;20454;-78
2023/11/14 11:04:01;;;;;;;8.23;3.63;;;;;;;14.49;67.46;94797.16;5032376;28;20477;-78
2023/11/14 11:06:28;;;;;;;10.47;4.10;;;;;;;14.60;66.69;94786.34;5032236;28;20447;-78
2023/11/14 11:08:55;;;;;;;4.40;4.00;;;;;;;14.52;66.60;94773.09;4997555;28;20446;-78
2023/11/14 11:11:28;;;;;;;3.53;3.17;;;;;;;14.62;67.14;94762.41;5032176;28;20490;-77
2023/11/14 11:13:58;;;;;;;7.40;3.90;;;;;;;14.68;66.45;94751.19;5013491;28;20488;-78
2023/11/14 11:16:44;;;;;;;5.90;4.20;;;;;;;14.78;66.72;94744.00;5031945;28;21002;-77
2023/11/14 11:19:12;;;;;;;3.33;3.03;;;;;;;14.86;66.33;94742.22;4997600;28;20478;-78
2023/11/14 11:21:39;;;;;;;7.50;4.10;;;;;;;14.94;65.62;94751.16;5031955;28;20930;-78
2023/11/14 11:24:10;;;;;;;3.50;2.80;;;;;;;14.85;64.35;94751.13;5031977;28;20476;-77
2023/11/14 11:27:11;;;;;;;7.20;3.23;;;;;;;14.87;64.74;94738.56;5031782;28;20454;-78
2023/11/14 11:29:46;;;;;;;9.20;3.67;;;;;;;14.90;63.89;94740.06;5031426;28;20451;-76
2023/11/14 11:32:30;;;;;;;6.10;3.20;;;;;;;15.01;64.71;94747.69;5031817;28;20986;-76
2023/11/14 11:35:22;;;;;;;9.37;3.70;;;;;;;15.08;65.20;94751.38;5034437;28;20441;-76
2023/11/14 11:37:51;;;;;;;8.70;3.77;;;;;;;15.26;65.13;94760.97;5031949;28;20503;-76